Time;durP1;ratioP1;P1;durP2;ratioP2;P2;SDS_P1;SDS_P2;PMS_P1;PMS_P2;Temp;Humidity;BMP_temperature;BMP_pressure;BME280_temperature;BME280_humidity;BME280_pressure;Samples;Min_cycle;Max_cycle;Signal;HPM_P1;HPM_P2
2023/12/14 00:01:41;;;;;;;14.43;11.27;;;;;;;5.98;100.00;62615.50;5067052;28;20228;-75
2023/12/14 00:04:08;;;;;;;15.18;10.05;;;;;;;5.97;100.00;62609.44;5064470;28;20223;-76
2023/12/14 00:06:35;;;;;;;15.27;11.40;;;;;;;5.96;100.00;62610.91;5078152;28;20446;-76
2023/12/14 00:09:03;;;;;;;11.93;9.82;;;;;;;6.00;100.00;62618.09;5085838;28;20220;-77
2023/12/14 00:11:30;;;;;;;18.95;9.90;;;;;;;6.01;100.00;62616.06;5081007;28;20200;-76
2023/12/14 00:13:57;;;;;;;15.13;10.45;;;;;;;5.84;100.00;62597.06;5083114;28;20227;-76
2023/12/14 00:16:23;;;;;;;15.57;10.35;;;;;;;5.92;100.00;62604.78;5085529;28;20306;-74
2023/12/14 00:18:50;;;;;;;15.05;10.45;;;;;;;5.93;100.00;62608.34;5082908;28;20258;-77
2023/12/14 00:21:17;;;;;;;15.77;9.98;;;;;;;5.87;100.00;62602.16;5066430;28;20263;-76
2023/12/14 00:23:44;;;;;;;15.30;10.93;;;;;;;5.85;100.00;62600.09;5069859;28;20217;-76
2023/12/14 00:26:12;;;;;;;16.75;10.07;;;;;;;5.80;100.00;62592.41;5095374;28;20200;-77
2023/12/14 00:28:39;;;;;;;15.07;11.43;;;;;;;5.83;100.00;62601.09;5099970;28;20271;-77
2023/12/14 00:31:06;;;;;;;12.55;9.75;;;;;;;5.82;100.00;62597.53;5076673;28;20201;-77
2023/12/14 00:33:33;;;;;;;15.38;10.80;;;;;;;5.77;100.00;62592.38;5085469;28;20250;-76
2023/12/14 00:36:00;;;;;;;13.95;10.32;;;;;;;5.69;100.00;62581.06;5085493;28;20203;-76
2023/12/14 00:38:27;;;;;;;19.63;10.45;;;;;;;5.73;100.00;62590.75;5076560;28;20252;-76
2023/12/14 00:40:54;;;;;;;15.43;10.43;;;;;;;5.75;100.00;62587.78;5080317;28;20213;-76
2023/12/14 00:43:22;;;;;;;11.45;9.73;;;;;;;5.69;100.00;62584.09;5085021;28;20195;-76
2023/12/14 00:45:49;;;;;;;13.13;9.60;;;;;;;5.72;100.00;62586.69;5085597;28;20272;-76
2023/12/14 00:48:17;;;;;;;16.02;9.88;;;;;;;5.69;100.00;62581.56;5074837;28;20231;-78
2023/12/14 00:50:43;;;;;;;14.13;10.75;;;;;;;5.80;100.00;62600.50;5085834;28;20449;-76
2023/12/14 00:53:10;;;;;;;14.02;9.50;;;;;;;5.74;100.00;62594.31;5082372;28;20200;-76
2023/12/14 00:55:37;;;;;;;11.20;8.82;;;;;;;5.83;100.00;62598.56;5064761;28;20300;-75
2023/12/14 00:58:04;;;;;;;16.42;9.70;;;;;;;5.88;100.00;62603.19;5072785;28;20200;-75
2023/12/14 01:00:32;;;;;;;15.65;9.73;;;;;;;5.84;100.00;62597.06;5085091;28;20217;-77
2023/12/14 01:02:59;;;;;;;16.15;10.55;;;;;;;5.82;100.00;62597.53;5084844;28;20200;-77
2023/12/14 01:05:26;;;;;;;15.95;8.95;;;;;;;5.85;100.00;62597.56;5071603;28;20216;-75
2023/12/14 01:07:53;;;;;;;14.45;10.60;;;;;;;5.80;100.00;62592.91;5079428;28;20544;-76
2023/12/14 01:10:20;;;;;;;17.05;9.65;;;;;;;5.81;100.00;62596.50;5084770;28;20220;-77
2023/12/14 01:12:47;;;;;;;15.25;9.35;;;;;;;5.89;100.00;62609.28;5084273;28;20205;-76
2023/12/14 01:15:14;;;;;;;15.60;10.75;;;;;;;5.85;100.00;62598.09;5081573;28;20217;-77
2023/12/14 01:17:42;;;;;;;11.98;9.60;;;;;;;5.87;100.00;62602.16;5068428;28;20637;-76
2023/12/14 01:20:10;;;;;;;15.95;9.48;;;;;;;5.71;100.00;62580.63;5085212;28;20224;-75
2023/12/14 01:22:37;;;;;;;10.20;8.43;;;;;;;5.74;100.00;62588.75;5064437;28;20544;-76
2023/12/14 01:25:04;;;;;;;18.15;10.60;;;;;;;5.62;100.00;62573.88;5071661;28;20248;-75
2023/12/14 01:27:31;;;;;;;13.02;9.70;;;;;;;5.70;100.00;62582.09;5084269;28;20239;-76
2023/12/14 01:29:57;;;;;;;16.15;10.13;;;;;;;5.78;100.00;62593.38;5079931;28;20221;-75
2023/12/14 01:32:24;;;;;;;13.73;10.05;;;;;;;5.79;100.00;62594.44;5064144;28;20203;-75
2023/12/14 01:34:52;;;;;;;16.42;10.73;;;;;;;5.78;100.00;62593.38;5077177;28;20236;-76
2023/12/14 01:37:19;;;;;;;13.90;11.05;;;;;;;5.70;100.00;62587.16;5085679;28;20217;-76
2023/12/14 01:39:46;;;;;;;16.88;10.40;;;;;;;5.68;100.00;62583.09;5082037;28;20226;-75
2023/12/14 01:42:13;;;;;;;16.17;10.70;;;;;;;5.65;100.00;62579.47;5080257;28;20212;-76
2023/12/14 01:44:40;;;;;;;12.57;9.35;;;;;;;5.64;100.00;62576.44;5072864;28;20321;-76
2023/12/14 01:47:07;;;;;;;18.02;11.05;;;;;;;5.65;100.00;62580.00;5090352;28;20205;-76
2023/12/14 01:49:34;;;;;;;11.18;9.38;;;;;;;5.60;100.00;62572.31;5076110;28;20546;-75
2023/12/14 01:52:02;;;;;;;9.43;8.43;;;;;;;5.63;100.00;62580.47;5065339;28;20202;-75
2023/12/14 01:54:29;;;;;;;16.65;9.68;;;;;;;5.59;100.00;62570.78;5064470;28;20217;-74
2023/12/14 01:56:56;;;;;;;14.43;9.82;;;;;;;5.59;100.00;62573.31;5063770;28;20224;-76
2023/12/14 01:59:22;;;;;;;13.40;9.38;;;;;;;5.59;100.00;62576.34;5065027;28;20232;-76
2023/12/14 02:01:53;;;;;;;15.90;8.75;;;;;;;5.66;100.00;62583.03;5063754;28;20433;-76
2023/12/14 02:04:20;;;;;;;13.68;8.63;;;;;;;5.66;100.00;62578.50;5063664;28;20231;-77
2023/12/14 02:06:47;;;;;;;13.05;9.65;;;;;;;5.66;100.00;62578.50;5077365;28;20280;-77
2023/12/14 02:09:15;;;;;;;14.02;9.02;;;;;;;5.66;100.00;62580.53;5063668;28;20253;-75
2023/12/14 02:11:42;;;;;;;15.85;8.85;;;;;;;5.71;100.00;62586.16;5079444;28;20205;-75
2023/12/14 02:14:10;;;;;;;12.15;8.18;;;;;;;5.74;100.00;62589.28;5084932;28;20223;-77
2023/12/14 02:16:38;;;;;;;13.20;8.48;;;;;;;5.76;100.00;62588.28;5074448;28;20212;-76
2023/12/14 02:19:05;;;;;;;10.85;7.75;;;;;;;5.81;100.00;62598.50;5077902;28;20242;-76
2023/12/14 02:21:32;;;;;;;9.80;7.43;;;;;;;5.75;100.00;62590.31;5085494;28;20263;-75
2023/12/14 02:24:00;;;;;;;15.13;8.40;;;;;;;5.71;100.00;62583.16;5087757;28;20408;-76
2023/12/14 02:26:27;;;;;;;12.30;8.48;;;;;;;5.75;100.00;62590.31;5089344;28;20196;-76
2023/12/14 02:28:54;;;;;;;13.43;8.55;;;;;;;5.68;100.00;62580.03;5084898;28;20266;-75
2023/12/14 02:31:21;;;;;;;14.07;8.13;;;;;;;5.70;100.00;62585.16;5084355;28;20281;-75
2023/12/14 02:33:47;;;;;;;14.05;7.45;;;;;;;5.70;100.00;62585.16;5087396;28;20410;-76
2023/12/14 02:36:14;;;;;;;14.57;8.10;;;;;;;5.79;100.00;62596.44;5081667;28;20520;-76
2023/12/14 02:38:41;;;;;;;10.40;7.72;;;;;;;5.81;100.00;62595.97;5076835;28;20235;-75
2023/12/14 02:41:09;;;;;;;13.82;7.75;;;;;;;5.82;100.00;62595.00;5067778;28;20528;-76
2023/12/14 02:43:37;;;;;;;11.82;8.60;;;;;;;5.86;100.00;62606.19;5067652;28;20546;-77
2023/12/14 02:46:05;;;;;;;11.70;8.82;;;;;;;5.91;100.00;62603.25;5066921;28;20273;-76
2023/12/14 02:48:32;;;;;;;9.80;7.38;;;;;;;5.91;100.00;62608.28;5072655;28;20225;-75
2023/12/14 02:50:59;;;;;;;13.95;7.40;;;;;;;5.91;100.00;62605.78;5067266;28;20452;-76
2023/12/14 02:53:26;;;;;;;15.30;7.75;;;;;;;5.95;100.00;62618.00;5066891;28;20243;-76
2023/12/14 02:55:53;;;;;;;9.77;7.50;;;;;;;5.93;100.00;62605.31;5077724;28;20204;-75
2023/12/14 02:58:21;;;;;;;13.07;7.60;;;;;;;5.93;100.00;62605.31;5082944;28;20225;-75
2023/12/14 03:00:49;;;;;;;7.95;6.90;;;;;;;5.97;100.00;62611.97;5079012;28;20203;-77
2023/12/14 03:03:16;;;;;;;10.10;7.25;;;;;;;5.98;100.00;62613.50;5076815;28;20229;-78
2023/12/14 03:05:43;;;;;;;7.95;6.95;;;;;;;6.09;100.00;62627.34;5071317;28;20466;-76
2023/12/14 03:08:09;;;;;;;11.00;7.45;;;;;;;6.09;100.00;62626.84;5075284;28;20240;-76
2023/12/14 03:10:36;;;;;;;8.55;6.13;;;;;;;6.15;100.00;62630.50;5085112;28;20221;-76
2023/12/14 03:13:03;;;;;;;9.27;6.70;;;;;;;6.23;100.00;62643.81;5086286;28;20200;-78
2023/12/14 03:15:31;;;;;;;10.02;6.43;;;;;;;6.17;100.00;62635.63;5084069;28;20225;-76
2023/12/14 03:17:59;;;;;;;7.40;5.95;;;;;;;6.30;100.00;62648.50;5076743;28;20207;-75
2023/12/14 03:20:26;;;;;;;7.35;5.35;;;;;;;6.33;100.00;62649.06;5066966;28;20256;-76
2023/12/14 03:22:53;;;;;;;6.28;5.65;;;;;;;6.35;100.00;62653.66;5066251;28;20214;-76
2023/12/14 03:25:19;;;;;;;7.95;6.40;;;;;;;6.35;100.00;62649.09;5069058;28;20224;-76
2023/12/14 03:27:46;;;;;;;8.18;6.00;;;;;;;6.37;100.00;62650.66;5068643;28;20197;-76
2023/12/14 03:30:13;;;;;;;6.35;5.75;;;;;;;6.45;100.00;62661.97;5086839;28;20217;-75
2023/12/14 03:32:42;;;;;;;6.50;5.82;;;;;;;6.47;100.00;62663.50;5069974;28;20208;-76
2023/12/14 03:35:09;;;;;;;6.97;5.15;;;;;;;6.51;100.00;62668.13;5066532;28;20247;-76
2023/12/14 03:37:36;;;;;;;5.82;5.22;;;;;;;6.49;100.00;62668.09;5073720;28;20438;-76
2023/12/14 03:40:03;;;;;;;5.75;5.10;;;;;;;6.49;100.00;62666.06;5066208;28;20245;-76
2023/12/14 03:42:30;;;;;;;7.80;4.72;;;;;;;6.51;100.00;62670.66;5067774;28;20205;-76
2023/12/14 03:44:57;;;;;;;5.43;4.63;;;;;;;6.53;100.00;62677.28;5066257;28;20299;-76
2023/12/14 03:47:24;;;;;;;6.18;5.60;;;;;;;6.59;100.00;62673.34;5066466;28;20239;-76
2023/12/14 03:49:52;;;;;;;6.63;5.35;;;;;;;6.60;100.00;62671.84;5068253;28;20231;-75
2023/12/14 03:52:19;;;;;;;5.32;4.82;;;;;;;6.56;100.00;62677.84;5065788;28;20204;-76
2023/12/14 03:54:46;;;;;;;5.63;5.13;;;;;;;6.52;100.00;62668.66;5066054;28;20237;-76
2023/12/14 03:57:13;;;;;;;5.45;4.95;;;;;;;6.51;100.00;62668.13;5070386;28;20208;-76
2023/12/14 03:59:41;;;;;;;6.05;5.30;;;;;;;6.57;100.00;62676.88;5066172;28;20231;-75
2023/12/14 04:02:08;;;;;;;9.18;5.00;;;;;;;6.52;100.00;62666.13;5065776;28;20216;-76
2023/12/14 04:04:35;;;;;;;5.38;4.70;;;;;;;6.46;100.00;62665.50;5066124;28;20315;-75
2023/12/14 04:07:03;;;;;;;5.40;4.88;;;;;;;6.34;100.00;62647.56;5081442;28;20204;-76
2023/12/14 04:09:30;;;;;;;6.65;4.75;;;;;;;6.40;100.00;62651.22;5066650;28;20470;-77
2023/12/14 04:11:57;;;;;;;6.45;5.15;;;;;;;6.45;100.00;62666.50;5083909;28;20196;-76
2023/12/14 04:14:24;;;;;;;7.97;5.80;;;;;;;6.48;100.00;62667.59;5083355;28;20235;-76
2023/12/14 04:16:51;;;;;;;5.32;4.82;;;;;;;6.45;100.00;62663.97;5071426;28;20198;-77
2023/12/14 04:19:18;;;;;;;6.25;5.13;;;;;;;6.55;100.00;62674.28;5084071;28;20273;-76
2023/12/14 04:21:45;;;;;;;6.72;5.53;;;;;;;6.52;100.00;62668.66;5085540;28;20203;-76
2023/12/14 04:24:13;;;;;;;7.07;4.57;;;;;;;6.54;100.00;62671.22;5075947;28;20284;-76
2023/12/14 04:26:40;;;;;;;7.13;4.78;;;;;;;6.49;100.00;62668.59;5065090;28;20502;-77
2023/12/14 04:29:07;;;;;;;6.07;5.13;;;;;;;6.48;100.00;62665.06;5065552;28;20229;-77
2023/12/14 04:31:35;;;;;;;6.55;5.10;;;;;;;6.50;100.00;62666.59;5064845;28;20216;-76
2023/12/14 04:34:02;;;;;;;6.55;5.28;;;;;;;6.49;100.00;62668.09;5069978;28;20395;-76
2023/12/14 04:36:29;;;;;;;6.63;4.93;;;;;;;6.47;100.00;62669.06;5073372;28;20267;-75
2023/12/14 04:38:56;;;;;;;6.60;4.88;;;;;;;6.49;100.00;62665.56;5065274;28;20231;-77
2023/12/14 04:41:24;;;;;;;10.38;5.55;;;;;;;6.50;100.00;62669.66;5067954;28;20200;-76
2023/12/14 04:43:51;;;;;;;5.95;5.30;;;;;;;6.47;100.00;62660.97;5065043;28;20263;-76
2023/12/14 04:46:18;;;;;;;7.22;5.63;;;;;;;6.50;100.00;62667.13;5077962;28;20200;-78
2023/12/14 04:48:45;;;;;;;5.97;5.28;;;;;;;6.51;100.00;62665.63;5065703;28;20229;-75
2023/12/14 04:51:13;;;;;;;5.10;4.60;;;;;;;6.54;100.00;62673.75;5064990;28;20209;-76
2023/12/14 04:53:41;;;;;;;5.75;4.88;;;;;;;6.68;100.00;62682.63;5076913;28;20244;-76
2023/12/14 04:56:11;;;;;;;5.70;5.20;;;;;;;6.65;100.00;62679.53;5064099;28;20201;-76
2023/12/14 04:58:39;;;;;;;7.97;4.90;;;;;;;6.69;100.00;62688.72;5064318;28;20221;-76
2023/12/14 05:01:06;;;;;;;7.38;5.65;;;;;;;6.70;100.00;62689.75;5066053;28;20209;-75
2023/12/14 05:03:33;;;;;;;5.97;5.28;;;;;;;6.58;100.00;62679.91;5070366;28;20215;-76
2023/12/14 05:06:00;;;;;;;6.93;5.60;;;;;;;6.62;100.00;62676.44;5073639;28;20271;-76
2023/12/14 05:08:27;;;;;;;7.18;5.53;;;;;;;6.57;100.00;62676.34;5085493;28;20259;-77
2023/12/14 05:10:54;;;;;;;6.15;5.53;;;;;;;6.55;100.00;62674.28;5079558;28;20200;-77
2023/12/14 05:13:21;;;;;;;7.25;5.40;;;;;;;6.57;100.00;62671.81;5079636;28;20585;-77
2023/12/14 05:15:50;;;;;;;9.20;6.13;;;;;;;6.45;100.00;62661.97;5078174;28;20396;-77
2023/12/14 05:18:17;;;;;;;7.03;5.65;;;;;;;6.44;100.00;62660.41;5069359;28;20428;-76
2023/12/14 05:20:45;;;;;;;6.55;5.95;;;;;;;6.47;100.00;62668.56;5083397;28;20200;-78
2023/12/14 05:23:12;;;;;;;7.55;6.18;;;;;;;6.35;100.00;62651.63;5081984;28;20238;-76
2023/12/14 05:25:39;;;;;;;7.18;5.75;;;;;;;6.30;100.00;62643.97;5078901;28;20217;-77
2023/12/14 05:28:06;;;;;;;7.57;6.30;;;;;;;6.38;100.00;62654.22;5076887;28;20210;-77
2023/12/14 05:30:33;;;;;;;6.20;5.22;;;;;;;6.41;100.00;62657.31;5084870;28;20232;-77
2023/12/14 05:33:02;;;;;;;2.10;1.88;;;;;;;6.74;100.00;62691.88;5073813;28;20228;-77
2023/12/14 05:35:29;;;;;;;1.13;1.08;;;;;;;8.09;100.00;62830.16;5084709;28;20216;-78
2023/12/14 05:37:56;;;;;;;3.15;1.20;;;;;;;9.40;94.89;62967.03;5070822;28;20197;-76
2023/12/14 05:40:23;;;;;;;1.08;1.08;;;;;;;10.42;87.44;63072.56;5065646;28;20217;-77
2023/12/14 05:42:50;;;;;;;1.95;1.85;;;;;;;11.59;74.10;63191.16;5077442;28;20392;-77
2023/12/14 05:45:18;;;;;;;2.30;2.20;;;;;;;12.09;68.16;63247.59;5085772;28;20276;-76
2023/12/14 05:47:45;;;;;;;5.57;5.07;;;;;;;11.37;72.43;63170.41;5074994;28;20462;-76
2023/12/14 05:50:13;;;;;;;5.38;3.72;;;;;;;10.01;81.15;63028.09;5073982;28;20233;-76
2023/12/14 05:52:41;;;;;;;6.85;5.57;;;;;;;9.11;90.08;62937.59;5083635;28;20210;-77
2023/12/14 05:55:09;;;;;;;8.43;6.65;;;;;;;8.88;92.12;62913.81;5081468;28;20295;-76
2023/12/14 05:57:36;;;;;;;7.47;5.95;;;;;;;8.55;96.05;62882.25;5072968;28;20255;-76
2023/12/14 06:00:05;;;;;;;7.50;6.65;;;;;;;8.34;98.04;62856.00;5064198;28;20240;-78
2023/12/14 06:02:32;;;;;;;6.80;5.93;;;;;;;8.09;100.00;62830.66;5081211;28;20205;-76
2023/12/14 06:04:59;;;;;;;6.55;5.90;;;;;;;7.81;100.00;62806.84;5084183;28;20248;-76
2023/12/14 06:07:28;;;;;;;6.70;5.95;;;;;;;7.49;100.00;62766.19;5085108;28;20520;-76
2023/12/14 06:09:55;;;;;;;8.35;5.70;;;;;;;7.56;100.00;62773.41;5085481;28;20228;-76
2023/12/14 06:12:22;;;;;;;7.43;6.35;;;;;;;7.52;100.00;62771.31;5084848;28;20212;-77
2023/12/14 06:14:49;;;;;;;6.03;5.32;;;;;;;7.39;100.00;62755.88;5084650;28;20533;-78
2023/12/14 06:17:16;;;;;;;9.90;6.53;;;;;;;7.25;100.00;62743.94;5083440;28;20203;-76
2023/12/14 06:19:43;;;;;;;9.20;6.03;;;;;;;7.21;100.00;62737.31;5083151;28;20276;-76
2023/12/14 06:22:10;;;;;;;7.40;6.35;;;;;;;7.15;100.00;62738.69;5084492;28;20197;-77
2023/12/14 06:24:38;;;;;;;7.28;5.72;;;;;;;7.10;100.00;62727.97;5085077;28;20212;-76
2023/12/14 06:27:05;;;;;;;8.55;6.60;;;;;;;6.97;100.00;62715.59;5083818;28;20200;-76
2023/12/14 06:29:32;;;;;;;8.10;6.32;;;;;;;6.95;100.00;62716.03;5083314;28;20251;-77
2023/12/14 06:31:59;;;;;;;8.95;7.07;;;;;;;6.90;100.00;62710.88;5084479;28;20261;-76
2023/12/14 06:34:26;;;;;;;8.25;6.45;;;;;;;6.94;100.00;62712.50;5083900;28;20217;-77
2023/12/14 06:36:53;;;;;;;8.15;7.00;;;;;;;7.22;100.00;62740.88;5085726;28;20272;-80
2023/12/14 06:39:20;;;;;;;7.28;6.57;;;;;;;7.35;100.00;62759.34;5087617;28;20220;-78
2023/12/14 06:41:48;;;;;;;11.40;7.53;;;;;;;7.27;100.00;62742.97;5088067;28;20234;-79
2023/12/14 06:44:16;;;;;;;10.60;7.53;;;;;;;7.28;100.00;62749.06;5088787;28;20280;-79
2023/12/14 06:46:44;;;;;;;12.13;7.63;;;;;;;7.46;100.00;62765.09;5088611;28;20258;-79
2023/12/14 06:49:10;;;;;;;9.70;7.78;;;;;;;7.74;100.00;62799.09;5088117;28;20232;-78
2023/12/14 06:51:37;;;;;;;9.30;6.80;;;;;;;7.75;100.00;62797.56;5086939;28;20196;-79
2023/12/14 06:54:04;;;;;;;23.55;14.05;;;;;;;7.76;100.00;62796.09;5087182;28;20224;-79
2023/12/14 06:56:31;;;;;;;11.13;7.15;;;;;;;7.68;100.00;62790.38;5086374;28;20247;-76
2023/12/14 06:58:59;;;;;;;10.45;7.43;;;;;;;7.70;100.00;62792.94;5084574;28;20217;-76
2023/12/14 07:01:26;;;;;;;9.98;6.45;;;;;;;7.52;100.00;62773.84;5083558;28;20203;-77
2023/12/14 07:03:53;;;;;;;11.07;7.80;;;;;;;7.71;100.00;62790.91;5083676;28;20217;-77
2023/12/14 07:06:20;;;;;;;13.77;7.82;;;;;;;7.75;100.00;62795.03;5085357;28;20197;-77
2023/12/14 07:08:48;;;;;;;9.10;7.82;;;;;;;7.73;100.00;62793.00;5088644;28;20222;-77
2023/12/14 07:11:15;;;;;;;10.60;7.35;;;;;;;7.57;100.00;62774.47;5087322;28;20201;-76
2023/12/14 07:13:42;;;;;;;13.20;7.65;;;;;;;7.69;100.00;62789.38;5087114;28;20548;-76
2023/12/14 07:16:11;;;;;;;8.88;7.72;;;;;;;7.81;100.00;62803.78;5087176;28;20235;-76
2023/12/14 07:18:38;;;;;;;8.40;7.20;;;;;;;7.83;100.00;62806.38;5087631;28;20451;-77
2023/12/14 07:21:05;;;;;;;10.65;6.93;;;;;;;7.89;100.00;62815.09;5088765;28;20211;-77
2023/12/14 07:23:32;;;;;;;8.43;6.70;;;;;;;7.96;100.00;62819.78;5088096;28;20248;-77
2023/12/14 07:25:59;;;;;;;6.70;5.82;;;;;;;8.12;100.00;62838.84;5089514;28;20256;-77
2023/12/14 07:28:26;;;;;;;9.65;6.45;;;;;;;8.26;100.00;62847.72;5087535;28;20212;-77
2023/12/14 07:30:53;;;;;;;5.97;5.05;;;;;;;8.44;100.00;62868.34;5089306;28;20278;-76
2023/12/14 07:33:22;;;;;;;15.30;11.07;;;;;;;8.58;100.00;62878.25;5086783;28;20197;-75
2023/12/14 07:35:49;;;;;;;13.73;6.80;;;;;;;8.72;100.00;62894.72;5086218;28;20193;-77
2023/12/14 07:38:16;;;;;;;10.43;5.78;;;;;;;8.82;100.00;62905.06;5086514;28;20243;-76
2023/12/14 07:40:43;;;;;;;18.25;7.05;;;;;;;8.95;100.00;62921.56;5086968;28;20203;-78
2023/12/14 07:43:10;;;;;;;5.20;4.72;;;;;;;9.07;99.44;62935.97;5086648;28;20193;-78
2023/12/14 07:45:37;;;;;;;10.50;5.53;;;;;;;9.13;99.86;62937.63;5082612;28;20255;-78
2023/12/14 07:48:04;;;;;;;4.22;3.92;;;;;;;9.30;97.46;62954.69;5088013;28;20204;-78
2023/12/14 07:50:33;;;;;;;4.65;3.95;;;;;;;9.35;94.44;62960.34;5086728;28;20228;-76
2023/12/14 07:53:00;;;;;;;5.70;3.97;;;;;;;9.55;92.45;62982.53;5086207;28;20205;-78
2023/12/14 07:55:27;;;;;;;7.38;5.78;;;;;;;9.61;92.73;62986.22;5087141;28;20212;-76
2023/12/14 07:57:53;;;;;;;4.68;4.28;;;;;;;9.78;92.87;63003.78;5087759;28;20223;-77
2023/12/14 08:00:20;;;;;;;4.05;3.63;;;;;;;9.89;91.33;63010.06;5086068;28;20430;-76
2023/12/14 08:02:47;;;;;;;5.32;4.07;;;;;;;9.87;90.55;63016.16;5086265;28;20469;-76
2023/12/14 08:05:14;;;;;;;4.70;4.30;;;;;;;10.00;91.19;63027.06;5085852;28;20220;-77
2023/12/14 08:07:43;;;;;;;7.03;3.83;;;;;;;10.05;89.47;63034.78;5085281;28;20199;-77
2023/12/14 08:10:10;;;;;;;10.75;7.43;;;;;;;10.22;89.71;63046.78;5084950;28;20263;-76
2023/12/14 08:12:37;;;;;;;5.70;4.35;;;;;;;10.33;88.35;63058.69;5084813;28;20244;-77
2023/12/14 08:15:05;;;;;;;6.97;4.80;;;;;;;10.45;87.14;63078.75;5084789;28;20251;-77
2023/12/14 08:17:32;;;;;;;3.70;3.40;;;;;;;10.60;86.13;63085.56;5084492;28;20203;-77
2023/12/14 08:19:59;;;;;;;3.85;3.55;;;;;;;10.58;85.61;63086.56;5084212;28;20233;-77
2023/12/14 08:22:26;;;;;;;3.85;3.55;;;;;;;10.60;86.31;63088.13;5085451;28;20279;-76
2023/12/14 08:24:54;;;;;;;4.43;3.50;;;;;;;10.73;85.57;63104.13;5084765;28;20529;-77
2023/12/14 08:27:21;;;;;;;4.03;3.63;;;;;;;10.77;84.75;63108.78;5085766;28;20200;-77
2023/12/14 08:29:48;;;;;;;4.22;3.83;;;;;;;10.66;85.45;63091.78;5085262;28;20274;-77
2023/12/14 08:32:15;;;;;;;6.22;4.55;;;;;;;10.43;85.75;63074.13;5084467;28;20205;-76
2023/12/14 08:34:42;;;;;;;5.85;5.25;;;;;;;10.50;87.27;63080.84;5084150;28;20283;-77
2023/12/14 08:37:09;;;;;;;6.07;5.30;;;;;;;10.61;87.20;63092.25;5084749;28;20192;-76
2023/12/14 08:39:36;;;;;;;5.75;4.35;;;;;;;10.83;86.07;63114.47;5084126;28;20217;-77
2023/12/14 08:42:05;;;;;;;6.57;3.88;;;;;;;10.75;83.10;63106.22;5085344;28;20263;-77
2023/12/14 08:44:32;;;;;;;8.80;5.60;;;;;;;10.88;83.89;63120.19;5084665;28;20309;-76
2023/12/14 08:46:59;;;;;;;6.10;4.15;;;;;;;10.79;84.75;63110.88;5085292;28;20531;-77
2023/12/14 08:49:26;;;;;;;5.35;4.85;;;;;;;10.73;83.52;63099.56;5086800;28;20277;-77
2023/12/14 08:51:53;;;;;;;4.43;4.03;;;;;;;10.92;82.67;63123.81;5086342;28;20211;-78
2023/12/14 08:54:20;;;;;;;4.72;4.00;;;;;;;10.86;82.36;63115.03;5084706;28;20223;-76
2023/12/14 08:56:47;;;;;;;6.28;4.05;;;;;;;10.51;83.45;63081.38;5085406;28;20267;-76
2023/12/14 08:59:15;;;;;;;7.93;5.25;;;;;;;10.42;86.70;63072.56;5085355;28;20282;-77
2023/12/14 09:01:43;;;;;;;13.27;7.88;;;;;;;10.82;85.87;63110.91;5088531;28;20197;-77
2023/12/14 09:04:09;;;;;;;8.63;5.20;;;;;;;11.02;82.54;63132.13;5085209;28;20303;-76
2023/12/14 09:06:36;;;;;;;9.27;6.70;;;;;;;11.28;81.40;63163.63;5085449;28;20197;-77
2023/12/14 09:09:03;;;;;;;7.85;5.20;;;;;;;11.36;80.29;63166.81;5084712;28;20216;-77
2023/12/14 09:11:30;;;;;;;4.32;4.03;;;;;;;11.58;80.17;63192.66;5085727;28;20541;-77
2023/12/14 09:13:57;;;;;;;6.55;4.85;;;;;;;11.68;78.48;63196.91;5085617;28;20212;-77
2023/12/14 09:16:26;;;;;;;4.60;4.20;;;;;;;11.87;76.85;63221.72;5084831;28;20519;-77
2023/12/14 09:18:53;;;;;;;8.35;5.00;;;;;;;12.06;77.41;63239.34;5084737;28;20216;-77
2023/12/14 09:21:20;;;;;;;6.72;4.93;;;;;;;12.37;76.24;63274.03;5084486;28;20260;-77
2023/12/14 09:23:47;;;;;;;4.13;3.80;;;;;;;12.59;72.46;63296.34;5085065;28;20585;-76
2023/12/14 09:26:15;;;;;;;6.18;3.97;;;;;;;12.66;71.17;63306.69;5084626;28;20207;-77
2023/12/14 09:28:42;;;;;;;5.60;3.95;;;;;;;12.73;69.50;63308.81;5073415;28;20225;-76
2023/12/14 09:31:09;;;;;;;3.50;3.10;;;;;;;12.83;68.92;63318.66;5064857;28;20232;-76
2023/12/14 09:33:38;;;;;;;4.05;3.65;;;;;;;12.65;69.09;63305.09;5064790;28;20225;-78
2023/12/14 09:36:05;;;;;;;4.55;3.65;;;;;;;12.76;68.61;63311.41;5064564;28;20226;-78
2023/12/14 09:38:32;;;;;;;3.75;3.30;;;;;;;12.47;68.57;63281.88;5070463;28;20196;-77
2023/12/14 09:40:59;;;;;;;4.78;3.30;;;;;;;12.37;70.44;63278.63;5083477;28;20457;-77
2023/12/14 09:43:28;;;;;;;6.85;3.80;;;;;;;12.20;70.91;63256.41;5069902;28;20204;-76
2023/12/14 09:45:55;;;;;;;3.90;3.17;;;;;;;12.26;72.10;63262.66;5084224;28;20193;-76
2023/12/14 09:48:22;;;;;;;6.03;3.90;;;;;;;12.33;71.92;63269.91;5084591;28;20234;-77
2023/12/14 09:50:50;;;;;;;6.28;3.50;;;;;;;11.94;72.40;63228.97;5063956;28;20228;-77
2023/12/14 09:53:18;;;;;;;4.28;3.88;;;;;;;12.01;73.56;63236.22;5064297;28;20193;-77
2023/12/14 09:55:45;;;;;;;4.18;3.78;;;;;;;12.26;71.09;63265.19;5065306;28;20197;-77
2023/12/14 09:58:12;;;;;;;5.25;3.22;;;;;;;12.37;69.63;63271.47;5074253;28;20202;-78
2023/12/14 10:00:40;;;;;;;3.47;3.20;;;;;;;12.42;69.49;63279.25;5084113;28;20776;-77
2023/12/14 10:03:23;;;;;;;3.38;3.10;;;;;;;12.25;71.33;63261.59;5085234;28;20485;-77
2023/12/14 10:05:52;;;;;;;3.83;3.53;;;;;;;12.28;71.25;63259.09;5084521;28;20200;-76
2023/12/14 10:08:19;;;;;;;3.20;3.00;;;;;;;12.34;69.96;63270.94;5078687;28;20232;-77
2023/12/14 10:10:48;;;;;;;4.15;3.20;;;;;;;12.40;70.28;63274.59;5072808;28;20266;-77
2023/12/14 10:13:18;;;;;;;3.88;3.47;;;;;;;12.51;70.04;63285.50;5083913;28;20197;-77
2023/12/14 10:15:45;;;;;;;4.93;3.30;;;;;;;12.70;68.95;63303.16;5084362;28;20235;-77
2023/12/14 10:18:12;;;;;;;3.20;3.00;;;;;;;12.89;66.65;63332.53;5083691;28;20202;-77
2023/12/14 10:20:40;;;;;;;7.35;4.07;;;;;;;12.91;65.64;63326.97;5084365;28;20220;-77
2023/12/14 10:23:08;;;;;;;10.73;6.18;;;;;;;13.10;65.22;63349.25;5085186;28;20197;-77
2023/12/14 10:25:36;;;;;;;5.57;4.13;;;;;;;12.88;66.47;63323.84;5084253;28;20274;-77
2023/12/14 10:28:03;;;;;;;5.72;3.40;;;;;;;12.96;66.66;63334.69;5083909;28;20578;-77
2023/12/14 10:30:31;;;;;;;3.60;3.30;;;;;;;13.06;65.83;63347.13;5085033;28;20244;-78
2023/12/14 10:32:58;;;;;;;5.00;4.28;;;;;;;13.18;66.13;63352.44;5084468;28;20258;-78
2023/12/14 10:35:25;;;;;;;8.50;5.25;;;;;;;13.05;66.73;63343.53;5083880;28;20285;-76
2023/12/14 10:37:53;;;;;;;11.40;6.63;;;;;;;13.21;65.81;63358.09;5085275;28;20204;-77
2023/12/14 10:40:22;;;;;;;3.80;3.50;;;;;;;13.16;64.74;63352.91;5085475;28;20232;-78
2023/12/14 10:42:49;;;;;;;3.55;3.25;;;;;;;12.92;66.01;63330.03;5087208;28;20204;-77
2023/12/14 10:45:16;;;;;;;3.05;2.85;;;;;;;13.03;64.81;63336.88;5087624;28;20238;-77
2023/12/14 10:47:44;;;;;;;4.15;3.85;;;;;;;12.91;64.92;63332.06;5090348;28;20215;-77
2023/12/14 10:50:12;;;;;;;4.25;3.55;;;;;;;12.70;66.37;63305.69;5087823;28;20227;-77
2023/12/14 10:52:39;;;;;;;7.03;3.42;;;;;;;12.34;68.21;63270.41;5086867;28;20204;-77
2023/12/14 10:55:08;;;;;;;5.18;3.72;;;;;;;12.34;69.48;63275.50;5088197;28;20240;-77
2023/12/14 10:57:36;;;;;;;4.85;3.78;;;;;;;11.93;71.17;63227.91;5086713;28;20525;-77
2023/12/14 11:00:07;;;;;;;7.70;4.47;;;;;;;11.59;76.08;63190.66;5086282;28;20224;-78
2023/12/14 11:02:43;;;;;;;13.43;6.10;;;;;;;11.36;84.34;63164.78;5086660;28;20254;-77
2023/12/14 11:05:11;;;;;;;10.25;6.30;;;;;;;11.20;88.32;63150.25;5086912;28;20283;-77
2023/12/14 11:07:48;;;;;;;10.23;6.10;;;;;;;11.04;90.71;63136.75;5086773;28;20239;-76
2023/12/14 11:10:16;;;;;;;11.60;6.70;;;;;;;10.95;93.01;63129.97;5086501;28;20216;-76
2023/12/14 11:12:58;;;;;;;15.18;7.55;;;;;;;11.06;94.19;63138.81;5086426;28;20222;-78
2023/12/14 11:15:27;;;;;;;11.27;6.88;;;;;;;11.01;100.00;63133.63;5087114;28;20219;-77
2023/12/14 11:18:22;;;;;;;10.68;6.85;;;;;;;10.57;100.00;63090.13;5086034;28;20195;-77
2023/12/14 11:20:50;;;;;;;11.05;6.22;;;;;;;10.43;100.00;63074.13;5087503;28;20241;-76
2023/12/14 11:23:19;;;;;;;6.80;4.72;;;;;;;10.36;100.00;63063.81;5087692;28;20193;-77
2023/12/14 11:25:48;;;;;;;4.50;4.10;;;;;;;10.09;100.00;63033.84;5086563;28;20193;-76
2023/12/14 11:28:16;;;;;;;4.90;4.40;;;;;;;10.09;100.00;63033.34;5087255;28;20224;-76
2023/12/14 11:30:44;;;;;;;5.10;3.83;;;;;;;10.14;100.00;63038.50;5088330;28;20254;-78